sensor_id;sensor_type;location;lat;lon;timestamp;temperature;humidity
1205;DHT22;592;48.764;9.174;2022-10-16T00:02:12;15.70;99.90
1205;DHT22;592;48.764;9.174;2022-10-16T00:04:39;15.60;99.90
1205;DHT22;592;48.764;9.174;2022-10-16T00:07:06;15.60;99.90
1205;DHT22;592;48.764;9.174;2022-10-16T00:09:32;15.70;99.90
1205;DHT22;592;48.764;9.174;2022-10-16T00:11:59;15.70;99.90
1205;DHT22;592;48.764;9.174;2022-10-16T00:14:26;15.70;99.90
1205;DHT22;592;48.764;9.174;2022-10-16T00:16:52;15.80;99.90
1205;DHT22;592;48.764;9.174;2022-10-16T00:19:20;15.80;99.90
1205;DHT22;592;48.764;9.174;2022-10-16T00:21:47;15.70;99.90
1205;DHT22;592;48.764;9.174;2022-10-16T00:24:14;15.80;99.90
1205;DHT22;592;48.764;9.174;2022-10-16T00:26:41;15.80;99.90
1205;DHT22;592;48.764;9.174;2022-10-16T00:29:08;15.70;99.90
1205;DHT22;592;48.764;9.174;2022-10-16T00:31:35;15.80;99.90
1205;DHT22;592;48.764;9.174;2022-10-16T00:34:02;15.80;99.90
1205;DHT22;592;48.764;9.174;2022-10-16T00:36:30;15.70;99.90
1205;DHT22;592;48.764;9.174;2022-10-16T00:38:57;15.80;99.90
1205;DHT22;592;48.764;9.174;2022-10-16T00:41:26;15.70;99.90
1205;DHT22;592;48.764;9.174;2022-10-16T00:43:56;15.60;99.90
1205;DHT22;592;48.764;9.174;2022-10-16T00:46:26;15.70;99.90
1205;DHT22;592;48.764;9.174;2022-10-16T00:48:56;15.70;99.90
1205;DHT22;592;48.764;9.174;2022-10-16T00:51:28;15.70;99.90
1205;DHT22;592;48.764;9.174;2022-10-16T00:53:58;15.70;99.90
1205;DHT22;592;48.764;9.174;2022-10-16T00:56:25;15.70;99.90
1205;DHT22;592;48.764;9.174;2022-10-16T00:58:52;15.60;99.90
1205;DHT22;592;48.764;9.174;2022-10-16T01:01:21;15.60;99.90
1205;DHT22;592;48.764;9.174;2022-10-16T01:03:48;15.60;99.90
1205;DHT22;592;48.764;9.174;2022-10-16T01:06:23;15.60;99.90
1205;DHT22;592;48.764;9.174;2022-10-16T01:09:11;15.50;99.90
1205;DHT22;592;48.764;9.174;2022-10-16T01:11:45;15.60;99.90
1205;DHT22;592;48.764;9.174;2022-10-16T01:14:20;15.60;99.90
1205;DHT22;592;48.764;9.174;2022-10-16T01:16:52;15.60;99.90
1205;DHT22;592;48.764;9.174;2022-10-16T01:19:31;15.70;99.90
1205;DHT22;592;48.764;9.174;2022-10-16T01:22:05;15.70;99.90
1205;DHT22;592;48.764;9.174;2022-10-16T01:24:39;15.80;99.90
1205;DHT22;592;48.764;9.174;2022-10-16T01:27:09;15.80;99.90
1205;DHT22;592;48.764;9.174;2022-10-16T01:29:41;15.80;99.90
1205;DHT22;592;48.764;9.174;2022-10-16T01:32:13;15.80;99.90
1205;DHT22;592;48.764;9.174;2022-10-16T01:34:47;15.80;99.90
1205;DHT22;592;48.764;9.174;2022-10-16T01:37:18;15.80;99.90
1205;DHT22;592;48.764;9.174;2022-10-16T01:39:47;15.80;99.90
1205;DHT22;592;48.764;9.174;2022-10-16T01:42:23;15.80;99.90
1205;DHT22;592;48.764;9.174;2022-10-16T01:44:52;15.80;99.90
1205;DHT22;592;48.764;9.174;2022-10-16T01:47:22;15.80;99.90
1205;DHT22;592;48.764;9.174;2022-10-16T01:49:51;15.80;99.90
1205;DHT22;592;48.764;9.174;2022-10-16T01:52:23;15.80;99.90
1205;DHT22;592;48.764;9.174;2022-10-16T01:54:54;15.80;99.90
1205;DHT22;592;48.764;9.174;2022-10-16T01:57:24;15.80;99.90
1205;DHT22;592;48.764;9.174;2022-10-16T01:59:54;15.80;99.90
1205;DHT22;592;48.764;9.174;2022-10-16T02:02:22;15.90;99.90
1205;DHT22;592;48.764;9.174;2022-10-16T02:04:54;15.80;99.90
1205;DHT22;592;48.764;9.174;2022-10-16T02:07:23;15.80;99.90
1205;DHT22;592;48.764;9.174;2022-10-16T02:09:51;15.80;99.90
1205;DHT22;592;48.764;9.174;2022-10-16T02:12:26;15.80;99.90
1205;DHT22;592;48.764;9.174;2022-10-16T02:14:53;15.80;99.90
1205;DHT22;592;48.764;9.174;2022-10-16T02:17:22;15.80;99.90
1205;DHT22;592;48.764;9.174;2022-10-16T02:19:51;15.80;99.90
1205;DHT22;592;48.764;9.174;2022-10-16T02:22:24;15.80;99.90
1205;DHT22;592;48.764;9.174;2022-10-16T02:24:57;15.80;99.90
1205;DHT22;592;48.764;9.174;2022-10-16T02:27:29;15.90;99.90
1205;DHT22;592;48.764;9.174;2022-10-16T02:30:06;15.90;99.90
1205;DHT22;592;48.764;9.174;2022-10-16T02:32:37;15.90;99.90
1205;DHT22;592;48.764;9.174;2022-10-16T02:35:06;15.90;99.90
1205;DHT22;592;48.764;9.174;2022-10-16T02:37:34;15.90;99.90
1205;DHT22;592;48.764;9.174;2022-10-16T02:40:03;15.90;99.90
1205;DHT22;592;48.764;9.174;2022-10-16T02:42:36;15.90;99.90
1205;DHT22;592;48.764;9.174;2022-10-16T02:45:04;15.90;99.90
1205;DHT22;592;48.764;9.174;2022-10-16T02:47:31;15.90;99.90
1205;DHT22;592;48.764;9.174;2022-10-16T02:49:58;15.90;99.90
1205;DHT22;592;48.764;9.174;2022-10-16T02:52:25;15.80;99.90
1205;DHT22;592;48.764;9.174;2022-10-16T02:54:51;15.70;99.90
1205;DHT22;592;48.764;9.174;2022-10-16T02:57:18;15.60;99.90
1205;DHT22;592;48.764;9.174;2022-10-16T02:59:47;15.70;99.90
1205;DHT22;592;48.764;9.174;2022-10-16T03:02:14;15.70;99.90
1205;DHT22;592;48.764;9.174;2022-10-16T03:04:41;15.60;99.90
1205;DHT22;592;48.764;9.174;2022-10-16T03:07:09;15.60;99.90
1205;DHT22;592;48.764;9.174;2022-10-16T03:09:37;15.60;99.90
1205;DHT22;592;48.764;9.174;2022-10-16T03:12:04;15.60;99.90
1205;DHT22;592;48.764;9.174;2022-10-16T03:14:30;15.50;99.90
1205;DHT22;592;48.764;9.174;2022-10-16T03:16:59;15.50;99.90
1205;DHT22;592;48.764;9.174;2022-10-16T03:19:26;15.50;99.90
1205;DHT22;592;48.764;9.174;2022-10-16T03:21:52;15.40;99.90
1205;DHT22;592;48.764;9.174;2022-10-16T03:24:20;15.40;99.90
1205;DHT22;592;48.764;9.174;2022-10-16T03:26:47;15.40;99.90
1205;DHT22;592;48.764;9.174;2022-10-16T03:29:14;15.30;99.90
1205;DHT22;592;48.764;9.174;2022-10-16T03:31:41;15.30;99.90
1205;DHT22;592;48.764;9.174;2022-10-16T03:34:16;15.30;99.90
1205;DHT22;592;48.764;9.174;2022-10-16T03:36:45;15.40;99.90
1205;DHT22;592;48.764;9.174;2022-10-16T03:39:12;15.40;99.90
1205;DHT22;592;48.764;9.174;2022-10-16T03:41:39;15.40;99.90
1205;DHT22;592;48.764;9.174;2022-10-16T03:44:11;15.40;99.90
1205;DHT22;592;48.764;9.174;2022-10-16T03:46:39;15.40;99.90
1205;DHT22;592;48.764;9.174;2022-10-16T03:49:06;15.40;99.90
1205;DHT22;592;48.764;9.174;2022-10-16T03:51:39;15.40;99.90
1205;DHT22;592;48.764;9.174;2022-10-16T03:54:09;15.40;99.90
1205;DHT22;592;48.764;9.174;2022-10-16T03:56:36;15.40;99.90
1205;DHT22;592;48.764;9.174;2022-10-16T03:59:08;15.40;99.90
1205;DHT22;592;48.764;9.174;2022-10-16T04:01:42;15.30;99.90
1205;DHT22;592;48.764;9.174;2022-10-16T04:04:10;15.30;99.90
1205;DHT22;592;48.764;9.174;2022-10-16T04:06:53;15.40;99.90
1205;DHT22;592;48.764;9.174;2022-10-16T04:09:30;15.40;99.90
1205;DHT22;592;48.764;9.174;2022-10-16T04:11:57;15.40;99.90
1205;DHT22;592;48.764;9.174;2022-10-16T04:14:36;15.40;99.90
1205;DHT22;592;48.764;9.174;2022-10-16T04:17:22;15.30;99.90
1205;DHT22;592;48.764;9.174;2022-10-16T07:57:20;16.90;99.90
1205;DHT22;592;48.764;9.174;2022-10-16T07:59:48;17.00;99.90
1205;DHT22;592;48.764;9.174;2022-10-16T08:02:15;17.00;99.90
1205;DHT22;592;48.764;9.174;2022-10-16T08:04:46;17.10;99.90
1205;DHT22;592;48.764;9.174;2022-10-16T08:07:13;17.10;99.90
1205;DHT22;592;48.764;9.174;2022-10-16T08:09:43;17.20;99.90
1205;DHT22;592;48.764;9.174;2022-10-16T08:12:09;17.30;99.90
1205;DHT22;592;48.764;9.174;2022-10-16T08:17:36;17.70;99.90
1205;DHT22;592;48.764;9.174;2022-10-16T08:20:03;17.70;99.90
1205;DHT22;592;48.764;9.174;2022-10-16T08:22:31;17.90;99.90
1205;DHT22;592;48.764;9.174;2022-10-16T08:24:57;18.00;99.90
1205;DHT22;592;48.764;9.174;2022-10-16T08:27:24;18.10;99.90
1205;DHT22;592;48.764;9.174;2022-10-16T08:29:51;18.10;99.90
1205;DHT22;592;48.764;9.174;2022-10-16T08:32:18;18.10;99.90
1205;DHT22;592;48.764;9.174;2022-10-16T08:34:46;18.20;99.90
1205;DHT22;592;48.764;9.174;2022-10-16T08:37:13;18.30;99.90
1205;DHT22;592;48.764;9.174;2022-10-16T08:39:40;18.30;99.90
1205;DHT22;592;48.764;9.174;2022-10-16T08:42:25;18.20;99.90
1205;DHT22;592;48.764;9.174;2022-10-16T08:45:26;18.20;99.90
1205;DHT22;592;48.764;9.174;2022-10-16T08:48:06;18.20;99.90
1205;DHT22;592;48.764;9.174;2022-10-16T08:50:39;18.10;99.90
1205;DHT22;592;48.764;9.174;2022-10-16T08:53:07;18.20;99.90
1205;DHT22;592;48.764;9.174;2022-10-16T08:55:41;18.20;99.90
1205;DHT22;592;48.764;9.174;2022-10-16T08:58:12;18.30;99.90
1205;DHT22;592;48.764;9.174;2022-10-16T09:00:40;18.30;99.90
1205;DHT22;592;48.764;9.174;2022-10-16T09:03:17;18.30;99.90
1205;DHT22;592;48.764;9.174;2022-10-16T09:06:25;18.40;99.90
1205;DHT22;592;48.764;9.174;2022-10-16T09:09:11;18.50;99.90
1205;DHT22;592;48.764;9.174;2022-10-16T09:51:18;19.30;99.90
1205;DHT22;592;48.764;9.174;2022-10-16T09:56:32;20.10;99.90
1205;DHT22;592;48.764;9.174;2022-10-16T09:59:11;20.00;99.90
1205;DHT22;592;48.764;9.174;2022-10-16T10:01:39;20.00;99.90
1205;DHT22;592;48.764;9.174;2022-10-16T10:04:07;20.20;99.90
1205;DHT22;592;48.764;9.174;2022-10-16T10:06:41;20.30;99.90
1205;DHT22;592;48.764;9.174;2022-10-16T10:09:17;20.40;99.90
1205;DHT22;592;48.764;9.174;2022-10-16T10:11:54;20.40;99.90
1205;DHT22;592;48.764;9.174;2022-10-16T10:14:37;20.50;99.90
1205;DHT22;592;48.764;9.174;2022-10-16T10:17:14;20.60;99.90
1205;DHT22;592;48.764;9.174;2022-10-16T10:19:47;20.60;99.90
1205;DHT22;592;48.764;9.174;2022-10-16T10:22:40;20.70;99.90
1205;DHT22;592;48.764;9.174;2022-10-16T10:25:46;20.80;99.90
1205;DHT22;592;48.764;9.174;2022-10-16T10:28:46;20.80;99.90
1205;DHT22;592;48.764;9.174;2022-10-16T10:31:21;20.80;99.90
1205;DHT22;592;48.764;9.174;2022-10-16T10:33:54;21.00;99.90
1205;DHT22;592;48.764;9.174;2022-10-16T10:36:30;21.30;99.90
1205;DHT22;592;48.764;9.174;2022-10-16T10:39:02;21.40;99.90
1205;DHT22;592;48.764;9.174;2022-10-16T10:41:57;21.60;99.90
1205;DHT22;592;48.764;9.174;2022-10-16T10:44:36;21.60;99.90
1205;DHT22;592;48.764;9.174;2022-10-16T10:47:10;21.70;99.90
1205;DHT22;592;48.764;9.174;2022-10-16T10:49:50;21.70;99.90
1205;DHT22;592;48.764;9.174;2022-10-16T10:52:36;21.90;99.90
1205;DHT22;592;48.764;9.174;2022-10-16T10:55:16;22.10;99.90
1205;DHT22;592;48.764;9.174;2022-10-16T10:58:05;22.20;99.90
1205;DHT22;592;48.764;9.174;2022-10-16T11:00:43;22.10;99.90
1205;DHT22;592;48.764;9.174;2022-10-16T11:03:21;22.20;99.90
1205;DHT22;592;48.764;9.174;2022-10-16T11:05:56;22.30;99.90
1205;DHT22;592;48.764;9.174;2022-10-16T11:08:28;22.60;99.90
1205;DHT22;592;48.764;9.174;2022-10-16T11:11:02;22.50;99.90
1205;DHT22;592;48.764;9.174;2022-10-16T11:13:33;22.50;99.90
1205;DHT22;592;48.764;9.174;2022-10-16T11:16:07;22.50;99.90
1205;DHT22;592;48.764;9.174;2022-10-16T11:18:47;22.40;99.90
1205;DHT22;592;48.764;9.174;2022-10-16T11:21:18;22.40;99.90
1205;DHT22;592;48.764;9.174;2022-10-16T11:23:51;22.40;99.90
1205;DHT22;592;48.764;9.174;2022-10-16T11:26:25;22.50;99.90
1205;DHT22;592;48.764;9.174;2022-10-16T11:28:54;22.50;99.90
1205;DHT22;592;48.764;9.174;2022-10-16T11:31:28;22.50;99.90
1205;DHT22;592;48.764;9.174;2022-10-16T11:34:02;22.60;99.90
1205;DHT22;592;48.764;9.174;2022-10-16T11:36:35;22.60;99.90
1205;DHT22;592;48.764;9.174;2022-10-16T11:39:10;22.70;99.90
1205;DHT22;592;48.764;9.174;2022-10-16T11:41:45;22.70;99.90
1205;DHT22;592;48.764;9.174;2022-10-16T11:44:33;22.80;99.90
1205;DHT22;592;48.764;9.174;2022-10-16T11:47:08;22.80;99.90
1205;DHT22;592;48.764;9.174;2022-10-16T11:49:40;22.90;99.90
1205;DHT22;592;48.764;9.174;2022-10-16T11:52:12;23.00;99.90
1205;DHT22;592;48.764;9.174;2022-10-16T11:54:45;23.20;99.90
1205;DHT22;592;48.764;9.174;2022-10-16T11:57:19;23.20;99.90
1205;DHT22;592;48.764;9.174;2022-10-16T11:59:48;23.10;99.90
1205;DHT22;592;48.764;9.174;2022-10-16T12:02:33;23.30;99.90
1205;DHT22;592;48.764;9.174;2022-10-16T12:05:11;23.30;99.90
1205;DHT22;592;48.764;9.174;2022-10-16T12:07:44;23.20;99.90
1205;DHT22;592;48.764;9.174;2022-10-16T12:10:20;23.30;99.90
1205;DHT22;592;48.764;9.174;2022-10-16T12:12:49;23.50;99.90
1205;DHT22;592;48.764;9.174;2022-10-16T12:15:22;23.70;99.90
1205;DHT22;592;48.764;9.174;2022-10-16T12:17:49;23.80;99.90
1205;DHT22;592;48.764;9.174;2022-10-16T12:20:26;23.90;99.90
1205;DHT22;592;48.764;9.174;2022-10-16T12:22:57;23.90;99.90
1205;DHT22;592;48.764;9.174;2022-10-16T12:25:27;24.00;99.90
1205;DHT22;592;48.764;9.174;2022-10-16T12:27:58;23.80;99.90
1205;DHT22;592;48.764;9.174;2022-10-16T12:30:27;23.80;99.90
1205;DHT22;592;48.764;9.174;2022-10-16T12:32:55;23.80;99.90
1205;DHT22;592;48.764;9.174;2022-10-16T12:35:25;24.00;99.90
1205;DHT22;592;48.764;9.174;2022-10-16T12:37:53;23.80;99.90
1205;DHT22;592;48.764;9.174;2022-10-16T12:40:27;23.70;99.90
1205;DHT22;592;48.764;9.174;2022-10-16T12:42:54;23.70;99.90
1205;DHT22;592;48.764;9.174;2022-10-16T12:45:28;23.80;99.90
1205;DHT22;592;48.764;9.174;2022-10-16T12:47:57;23.80;99.90
1205;DHT22;592;48.764;9.174;2022-10-16T12:50:28;23.70;99.90
1205;DHT22;592;48.764;9.174;2022-10-16T12:52:56;23.50;99.90
1205;DHT22;592;48.764;9.174;2022-10-16T12:55:23;23.20;99.90
1205;DHT22;592;48.764;9.174;2022-10-16T12:58:03;23.00;99.90
1205;DHT22;592;48.764;9.174;2022-10-16T13:00:41;23.00;99.90
1205;DHT22;592;48.764;9.174;2022-10-16T13:03:33;23.00;99.90
1205;DHT22;592;48.764;9.174;2022-10-16T13:06:12;23.00;99.90
1205;DHT22;592;48.764;9.174;2022-10-16T13:08:58;23.00;99.90
1205;DHT22;592;48.764;9.174;2022-10-16T13:11:50;23.00;99.90
1205;DHT22;592;48.764;9.174;2022-10-16T13:14:35;23.10;99.90
1205;DHT22;592;48.764;9.174;2022-10-16T13:17:13;23.30;99.90
1205;DHT22;592;48.764;9.174;2022-10-16T13:19:50;23.30;99.90
1205;DHT22;592;48.764;9.174;2022-10-16T13:22:24;23.30;99.90
1205;DHT22;592;48.764;9.174;2022-10-16T13:25:02;23.20;99.90
1205;DHT22;592;48.764;9.174;2022-10-16T13:27:38;23.20;99.90
1205;DHT22;592;48.764;9.174;2022-10-16T13:30:11;23.20;99.90
1205;DHT22;592;48.764;9.174;2022-10-16T13:32:43;23.20;99.90
1205;DHT22;592;48.764;9.174;2022-10-16T13:35:22;23.30;99.90
1205;DHT22;592;48.764;9.174;2022-10-16T13:37:49;23.50;99.90
1205;DHT22;592;48.764;9.174;2022-10-16T13:40:21;23.50;99.90
1205;DHT22;592;48.764;9.174;2022-10-16T13:42:49;23.70;99.90
1205;DHT22;592;48.764;9.174;2022-10-16T13:45:20;23.60;99.90
1205;DHT22;592;48.764;9.174;2022-10-16T13:47:49;23.40;99.90
1205;DHT22;592;48.764;9.174;2022-10-16T13:50:18;23.40;99.90
1205;DHT22;592;48.764;9.174;2022-10-16T13:52:45;23.40;99.90
1205;DHT22;592;48.764;9.174;2022-10-16T13:55:12;23.40;99.90
1205;DHT22;592;48.764;9.174;2022-10-16T13:57:39;23.60;99.90
1205;DHT22;592;48.764;9.174;2022-10-16T14:00:18;23.80;99.90
1205;DHT22;592;48.764;9.174;2022-10-16T14:02:52;23.80;99.90
1205;DHT22;592;48.764;9.174;2022-10-16T14:05:21;23.80;99.90
1205;DHT22;592;48.764;9.174;2022-10-16T14:07:52;23.70;99.90
1205;DHT22;592;48.764;9.174;2022-10-16T14:10:23;23.60;99.90
1205;DHT22;592;48.764;9.174;2022-10-16T14:12:58;23.50;99.90
1205;DHT22;592;48.764;9.174;2022-10-16T14:15:26;23.20;99.90
1205;DHT22;592;48.764;9.174;2022-10-16T14:17:54;23.30;99.90
1205;DHT22;592;48.764;9.174;2022-10-16T14:20:24;23.40;99.90
1205;DHT22;592;48.764;9.174;2022-10-16T14:23:00;23.40;99.90
1205;DHT22;592;48.764;9.174;2022-10-16T14:25:28;23.30;99.90
1205;DHT22;592;48.764;9.174;2022-10-16T14:28:01;23.40;99.90
1205;DHT22;592;48.764;9.174;2022-10-16T14:30:29;23.50;99.90
1205;DHT22;592;48.764;9.174;2022-10-16T14:32:59;23.50;99.90
1205;DHT22;592;48.764;9.174;2022-10-16T14:35:28;23.60;99.90
1205;DHT22;592;48.764;9.174;2022-10-16T14:37:57;23.50;99.90
1205;DHT22;592;48.764;9.174;2022-10-16T14:40:26;23.50;99.90
1205;DHT22;592;48.764;9.174;2022-10-16T14:42:53;23.40;99.90
1205;DHT22;592;48.764;9.174;2022-10-16T14:45:22;23.40;99.90
1205;DHT22;592;48.764;9.174;2022-10-16T14:47:52;23.40;99.90
1205;DHT22;592;48.764;9.174;2022-10-16T14:50:22;23.50;99.90
1205;DHT22;592;48.764;9.174;2022-10-16T14:52:49;23.70;99.90
1205;DHT22;592;48.764;9.174;2022-10-16T14:55:18;23.90;99.90
1205;DHT22;592;48.764;9.174;2022-10-16T14:57:45;23.80;99.90
1205;DHT22;592;48.764;9.174;2022-10-16T15:00:17;23.70;99.90
1205;DHT22;592;48.764;9.174;2022-10-16T15:02:46;23.60;99.90
1205;DHT22;592;48.764;9.174;2022-10-16T15:05:16;23.60;99.90
1205;DHT22;592;48.764;9.174;2022-10-16T15:07:45;23.60;99.90
1205;DHT22;592;48.764;9.174;2022-10-16T15:10:13;23.60;99.90
1205;DHT22;592;48.764;9.174;2022-10-16T15:12:40;23.60;99.90
1205;DHT22;592;48.764;9.174;2022-10-16T15:15:24;23.50;99.90
1205;DHT22;592;48.764;9.174;2022-10-16T15:17:52;23.40;99.90
1205;DHT22;592;48.764;9.174;2022-10-16T15:20:25;23.30;99.90
1205;DHT22;592;48.764;9.174;2022-10-16T15:22:57;23.20;99.90
1205;DHT22;592;48.764;9.174;2022-10-16T15:25:38;23.10;99.90
1205;DHT22;592;48.764;9.174;2022-10-16T15:28:06;23.00;99.90
1205;DHT22;592;48.764;9.174;2022-10-16T15:30:34;22.90;99.90
1205;DHT22;592;48.764;9.174;2022-10-16T15:33:01;22.80;99.90
1205;DHT22;592;48.764;9.174;2022-10-16T15:35:29;22.70;99.90
1205;DHT22;592;48.764;9.174;2022-10-16T15:37:57;22.70;99.90
1205;DHT22;592;48.764;9.174;2022-10-16T15:40:24;22.60;99.90
1205;DHT22;592;48.764;9.174;2022-10-16T15:42:53;22.40;99.90
1205;DHT22;592;48.764;9.174;2022-10-16T15:45:20;22.50;99.90
1205;DHT22;592;48.764;9.174;2022-10-16T15:47:47;22.40;99.90
1205;DHT22;592;48.764;9.174;2022-10-16T15:50:15;22.40;99.90
1205;DHT22;592;48.764;9.174;2022-10-16T15:52:42;22.30;99.90
1205;DHT22;592;48.764;9.174;2022-10-16T15:55:12;22.30;99.90
1205;DHT22;592;48.764;9.174;2022-10-16T15:57:40;22.20;99.90
1205;DHT22;592;48.764;9.174;2022-10-16T16:00:12;22.10;99.90
1205;DHT22;592;48.764;9.174;2022-10-16T16:02:39;22.00;99.90
1205;DHT22;592;48.764;9.174;2022-10-16T16:05:08;21.90;99.90
1205;DHT22;592;48.764;9.174;2022-10-16T16:07:36;21.80;99.90
1205;DHT22;592;48.764;9.174;2022-10-16T16:10:06;21.70;99.90
1205;DHT22;592;48.764;9.174;2022-10-16T16:12:35;21.70;99.90
1205;DHT22;592;48.764;9.174;2022-10-16T16:15:03;21.50;99.90
1205;DHT22;592;48.764;9.174;2022-10-16T16:17:35;21.40;99.90
1205;DHT22;592;48.764;9.174;2022-10-16T16:20:03;21.30;99.90
1205;DHT22;592;48.764;9.174;2022-10-16T16:22:31;21.20;99.90
1205;DHT22;592;48.764;9.174;2022-10-16T16:24:57;21.00;99.90
1205;DHT22;592;48.764;9.174;2022-10-16T16:27:24;20.90;99.90
1205;DHT22;592;48.764;9.174;2022-10-16T16:29:52;20.80;99.90
1205;DHT22;592;48.764;9.174;2022-10-16T16:32:20;20.70;99.90
1205;DHT22;592;48.764;9.174;2022-10-16T16:34:47;20.70;99.90
1205;DHT22;592;48.764;9.174;2022-10-16T16:37:14;20.50;99.90
1205;DHT22;592;48.764;9.174;2022-10-16T16:39:41;20.30;99.90
1205;DHT22;592;48.764;9.174;2022-10-16T16:42:08;20.30;99.90
1205;DHT22;592;48.764;9.174;2022-10-16T16:44:35;20.20;99.90
1205;DHT22;592;48.764;9.174;2022-10-16T16:47:05;20.10;99.90
1205;DHT22;592;48.764;9.174;2022-10-16T16:49:32;20.10;99.90
1205;DHT22;592;48.764;9.174;2022-10-16T16:51:59;20.00;99.90
1205;DHT22;592;48.764;9.174;2022-10-16T16:54:26;20.00;99.90
1205;DHT22;592;48.764;9.174;2022-10-16T16:56:53;20.00;99.90
1205;DHT22;592;48.764;9.174;2022-10-16T16:59:20;19.90;99.90
1205;DHT22;592;48.764;9.174;2022-10-16T17:01:48;19.90;99.90
1205;DHT22;592;48.764;9.174;2022-10-16T17:04:18;19.90;99.90
1205;DHT22;592;48.764;9.174;2022-10-16T17:06:45;19.80;99.90
1205;DHT22;592;48.764;9.174;2022-10-16T17:09:12;19.80;99.90
1205;DHT22;592;48.764;9.174;2022-10-16T17:11:44;19.70;99.90
1205;DHT22;592;48.764;9.174;2022-10-16T17:14:12;19.70;99.90
1205;DHT22;592;48.764;9.174;2022-10-16T17:16:39;19.60;99.90
1205;DHT22;592;48.764;9.174;2022-10-16T17:19:11;19.50;99.90
1205;DHT22;592;48.764;9.174;2022-10-16T17:21:41;19.50;99.90
1205;DHT22;592;48.764;9.174;2022-10-16T17:24:08;19.30;99.90
1205;DHT22;592;48.764;9.174;2022-10-16T17:26:36;19.40;99.90
1205;DHT22;592;48.764;9.174;2022-10-16T17:29:06;19.40;99.90
1205;DHT22;592;48.764;9.174;2022-10-16T17:31:34;19.30;99.90
1205;DHT22;592;48.764;9.174;2022-10-16T17:34:02;19.10;99.90
1205;DHT22;592;48.764;9.174;2022-10-16T17:36:30;19.20;99.90
1205;DHT22;592;48.764;9.174;2022-10-16T17:39:00;19.10;99.90
1205;DHT22;592;48.764;9.174;2022-10-16T17:41:29;19.00;99.90
1205;DHT22;592;48.764;9.174;2022-10-16T17:43:56;19.00;99.90
1205;DHT22;592;48.764;9.174;2022-10-16T17:46:23;18.90;99.90
1205;DHT22;592;48.764;9.174;2022-10-16T17:48:52;18.80;99.90
1205;DHT22;592;48.764;9.174;2022-10-16T17:51:22;18.70;99.90
1205;DHT22;592;48.764;9.174;2022-10-16T17:53:51;18.70;99.90
1205;DHT22;592;48.764;9.174;2022-10-16T17:56:19;18.70;99.90
1205;DHT22;592;48.764;9.174;2022-10-16T18:23:00;18.10;99.90
1205;DHT22;592;48.764;9.174;2022-10-16T18:28:07;18.00;99.90
1205;DHT22;592;48.764;9.174;2022-10-16T18:30:59;17.90;99.90
